Time;durP1;ratioP1;P1;durP2;ratioP2;P2;SDS_P1;SDS_P2;PMS_P1;PMS_P2;Temp;Humidity;BMP_temperature;BMP_pressure;BME280_temperature;BME280_humidity;BME280_pressure;Samples;Min_cycle;Max_cycle;Signal;HPM_P1;HPM_P2
2022/10/16 00:00:40;;;;;;;45.72;28.13;;;9.80;99.90;;;;;;5097227;28;20058;-64
2022/10/16 00:03:06;;;;;;;49.30;27.85;;;9.70;99.90;;;;;;5096998;28;20382;-64
2022/10/16 00:05:37;;;;;;;47.95;25.63;;;9.60;99.90;;;;;;5097216;28;20051;-64
2022/10/16 00:08:03;;;;;;;46.20;26.05;;;9.70;99.90;;;;;;5097146;28;20460;-64
2022/10/16 00:10:29;;;;;;;43.85;25.13;;;9.70;99.90;;;;;;5097179;28;20036;-64
2022/10/16 00:12:55;;;;;;;48.55;26.65;;;9.70;99.90;;;;;;5097023;28;20024;-64
2022/10/16 00:15:21;;;;;;;50.35;28.13;;;9.70;99.90;;;;;;5097451;28;20359;-65
2022/10/16 00:17:47;;;;;;;44.25;26.13;;;9.70;99.90;;;;;;5096895;28;20023;-64
2022/10/16 00:20:13;;;;;;;52.15;27.58;;;9.60;99.90;;;;;;5096899;28;20028;-64
2022/10/16 00:22:39;;;;;;;45.60;25.35;;;9.50;99.90;;;;;;5096828;28;20217;-64
2022/10/16 00:25:06;;;;;;;47.53;25.00;;;9.50;99.90;;;;;;5096743;28;20099;-64
2022/10/16 00:27:32;;;;;;;50.13;25.83;;;9.50;99.90;;;;;;5096881;28;20032;-65
2022/10/16 00:29:58;;;;;;;40.00;24.08;;;9.40;99.90;;;;;;5097037;28;20099;-65
2022/10/16 00:32:24;;;;;;;45.10;26.00;;;9.40;99.90;;;;;;5096492;28;20496;-65
2022/10/16 00:34:50;;;;;;;46.22;25.02;;;9.20;99.90;;;;;;5096767;28;20071;-64
2022/10/16 00:37:16;;;;;;;45.05;24.75;;;9.10;99.90;;;;;;5096613;28;20028;-65
2022/10/16 00:39:42;;;;;;;43.88;26.05;;;9.20;99.90;;;;;;5096536;28;20032;-64
2022/10/16 00:42:15;;;;;;;48.00;26.88;;;9.20;99.90;;;;;;5096581;28;20028;-65
2022/10/16 00:44:44;;;;;;;54.38;29.00;;;9.30;99.90;;;;;;5078152;28;20024;-65
2022/10/16 00:47:24;;;;;;;55.05;30.90;;;9.30;99.90;;;;;;5096387;28;20102;-65
2022/10/16 00:49:53;;;;;;;58.88;31.25;;;9.40;99.90;;;;;;5096467;28;20404;-64
2022/10/16 00:52:19;;;;;;;54.38;30.13;;;9.30;99.90;;;;;;5096376;28;20025;-64
2022/10/16 00:54:47;;;;;;;54.53;32.03;;;9.30;99.90;;;;;;5096450;28;20024;-64
2022/10/16 00:57:13;;;;;;;60.78;32.53;;;9.40;99.90;;;;;;5096170;28;20036;-64
2022/10/16 00:59:41;;;;;;;60.13;32.08;;;9.40;99.90;;;;;;5096225;28;20049;-64
2022/10/16 01:02:10;;;;;;;54.88;31.48;;;9.30;99.90;;;;;;5095515;28;20035;-64
2022/10/16 01:04:43;;;;;;;59.88;30.88;;;9.30;99.90;;;;;;5096225;28;20021;-64
2022/10/16 01:07:25;;;;;;;51.90;27.40;;;9.20;99.90;;;;;;5096117;28;20036;-65
2022/10/16 01:10:09;;;;;;;55.90;30.70;;;9.20;99.90;;;;;;5095937;28;20066;-65
2022/10/16 01:12:57;;;;;;;53.20;28.45;;;9.20;99.90;;;;;;5096016;28;20488;-64
2022/10/16 01:15:32;;;;;;;48.15;27.83;;;9.10;99.90;;;;;;5095881;28;20060;-65
2022/10/16 01:18:04;;;;;;;44.30;24.75;;;9.10;99.90;;;;;;5095785;28;20039;-65
2022/10/16 01:20:37;;;;;;;42.20;24.80;;;9.10;99.90;;;;;;5095787;28;20031;-64
2022/10/16 01:23:09;;;;;;;46.85;26.92;;;9.10;99.90;;;;;;5095566;28;20367;-65
2022/10/16 01:25:56;;;;;;;46.53;26.90;;;9.00;99.90;;;;;;5095748;28;20477;-65
2022/10/16 01:28:32;;;;;;;48.17;25.17;;;8.90;99.90;;;;;;5095579;28;20024;-65
2022/10/16 01:31:01;;;;;;;49.38;25.73;;;8.90;99.90;;;;;;5095736;28;20028;-65
2022/10/16 01:33:35;;;;;;;45.42;26.40;;;8.90;99.90;;;;;;5095555;28;20488;-65
2022/10/16 01:36:13;;;;;;;45.70;25.77;;;8.80;99.90;;;;;;5095376;28;20058;-64
2022/10/16 01:38:40;;;;;;;41.75;24.60;;;8.80;99.90;;;;;;5095541;28;20043;-64
2022/10/16 01:41:12;;;;;;;47.50;25.70;;;8.70;99.90;;;;;;5077108;28;20040;-64
2022/10/16 01:43:46;;;;;;;46.20;25.98;;;8.70;99.90;;;;;;5095357;28;20084;-64
2022/10/16 01:46:15;;;;;;;53.45;28.17;;;8.70;99.90;;;;;;5095396;28;20024;-64
2022/10/16 01:48:41;;;;;;;48.50;26.33;;;8.80;99.90;;;;;;5095201;28;20016;-64
2022/10/16 01:51:12;;;;;;;48.55;25.63;;;8.70;99.90;;;;;;5095490;28;20036;-64
2022/10/16 01:53:40;;;;;;;48.50;25.95;;;8.70;99.90;;;;;;5095144;28;20028;-64
2022/10/16 01:56:09;;;;;;;44.22;24.98;;;8.70;99.90;;;;;;5095257;28;20450;-64
2022/10/16 01:58:42;;;;;;;46.30;25.25;;;8.70;99.90;;;;;;5094992;28;20397;-64
2022/10/16 02:01:09;;;;;;;44.45;24.90;;;8.70;99.90;;;;;;5076669;28;20046;-64
2022/10/16 02:03:39;;;;;;;45.28;25.27;;;8.60;99.90;;;;;;5094990;28;20489;-64
2022/10/16 02:06:05;;;;;;;48.88;25.40;;;8.60;99.90;;;;;;5094891;28;20489;-64
2022/10/16 02:08:31;;;;;;;48.10;25.52;;;8.50;99.90;;;;;;5094893;28;20016;-65
2022/10/16 02:10:59;;;;;;;44.25;25.80;;;8.50;99.90;;;;;;5094973;28;20031;-65
2022/10/16 02:13:39;;;;;;;43.08;24.25;;;8.40;99.90;;;;;;5093917;28;20455;-64
2022/10/16 02:16:06;;;;;;;43.42;24.85;;;8.40;99.90;;;;;;5095000;28;20058;-64
2022/10/16 02:18:32;;;;;;;42.00;23.42;;;8.40;99.90;;;;;;5094640;28;20028;-65
2022/10/16 02:21:08;;;;;;;37.45;21.42;;;8.30;99.90;;;;;;5094641;28;20028;-65
2022/10/16 02:23:40;;;;;;;40.10;21.80;;;8.30;99.90;;;;;;5094435;28;20074;-65
2022/10/16 02:26:12;;;;;;;41.85;23.42;;;8.30;99.90;;;;;;5094953;28;20032;-64
2022/10/16 02:28:46;;;;;;;51.25;24.30;;;8.50;99.90;;;;;;5094688;28;20053;-65
2022/10/16 02:31:18;;;;;;;40.55;23.67;;;8.60;99.90;;;;;;5094769;28;20189;-64
2022/10/16 02:33:46;;;;;;;41.90;22.38;;;8.60;99.90;;;;;;5094562;28;20506;-64
2022/10/16 02:36:12;;;;;;;42.78;24.25;;;8.50;99.90;;;;;;5094599;28;20032;-64
2022/10/16 02:38:39;;;;;;;42.85;23.38;;;8.40;99.90;;;;;;5094557;28;20032;-64
2022/10/16 02:41:06;;;;;;;38.30;22.95;;;8.30;99.90;;;;;;5094505;28;20024;-64
2022/10/16 02:43:33;;;;;;;42.55;23.60;;;8.30;99.90;;;;;;5094325;28;20039;-64
2022/10/16 02:45:59;;;;;;;40.95;23.23;;;8.20;99.90;;;;;;5094484;28;20070;-64
2022/10/16 02:48:25;;;;;;;38.25;22.55;;;8.30;99.90;;;;;;5094465;28;20028;-65
2022/10/16 02:50:51;;;;;;;39.33;21.85;;;8.30;99.90;;;;;;5094514;28;20434;-64
2022/10/16 02:53:17;;;;;;;40.53;25.65;;;8.30;99.90;;;;;;5094411;28;20024;-64
2022/10/16 02:55:43;;;;;;;38.45;22.23;;;8.40;99.90;;;;;;5094333;28;20146;-65
2022/10/16 02:58:09;;;;;;;35.38;21.77;;;8.50;99.90;;;;;;5094452;28;20032;-65
2022/10/16 03:00:35;;;;;;;32.72;18.70;;;8.40;99.90;;;;;;5094318;28;20381;-65
2022/10/16 03:03:01;;;;;;;34.35;19.92;;;8.30;99.90;;;;;;5094317;28;20032;-65
2022/10/16 03:05:27;;;;;;;32.45;18.83;;;8.20;99.90;;;;;;5094342;28;20028;-64
2022/10/16 03:07:53;;;;;;;30.48;18.58;;;8.20;99.90;;;;;;5094584;28;20101;-65
2022/10/16 03:10:19;;;;;;;34.67;18.67;;;8.20;99.90;;;;;;5094347;28;20055;-65
2022/10/16 03:12:45;;;;;;;34.30;18.63;;;8.10;99.90;;;;;;5094158;28;20055;-64
2022/10/16 03:15:11;;;;;;;33.03;18.08;;;8.10;99.90;;;;;;5094207;28;20028;-64
2022/10/16 03:17:37;;;;;;;29.98;17.95;;;8.10;99.90;;;;;;5094356;28;20040;-64
2022/10/16 03:20:03;;;;;;;35.25;19.42;;;8.10;99.90;;;;;;5094059;28;20044;-64
2022/10/16 03:22:29;;;;;;;34.75;19.40;;;8.10;99.90;;;;;;5094055;28;20047;-64
2022/10/16 03:24:55;;;;;;;34.17;19.27;;;8.10;99.90;;;;;;5096390;28;20484;-64
2022/10/16 03:27:21;;;;;;;34.70;18.75;;;8.20;99.90;;;;;;5097994;28;20107;-64
2022/10/16 03:29:47;;;;;;;40.08;19.42;;;8.30;99.90;;;;;;5097949;28;20076;-64
2022/10/16 03:32:13;;;;;;;33.95;18.90;;;8.20;99.90;;;;;;5097912;28;20473;-64
2022/10/16 03:34:39;;;;;;;36.42;19.58;;;8.20;99.90;;;;;;5097893;28;20026;-64
2022/10/16 03:37:04;;;;;;;37.25;19.48;;;8.20;99.90;;;;;;5097829;28;20046;-64
2022/10/16 03:39:30;;;;;;;31.83;18.75;;;8.30;99.90;;;;;;5079517;28;20039;-64
2022/10/16 03:41:56;;;;;;;31.73;18.05;;;8.20;99.90;;;;;;5097722;28;20063;-64
2022/10/16 03:44:22;;;;;;;36.20;18.58;;;8.20;99.90;;;;;;5097581;28;20016;-64
2022/10/16 03:46:48;;;;;;;35.72;18.80;;;8.10;99.90;;;;;;5097696;28;20455;-64
2022/10/16 03:49:14;;;;;;;35.42;18.58;;;8.10;99.90;;;;;;5097583;28;20028;-64
2022/10/16 03:51:40;;;;;;;39.35;19.55;;;8.10;99.90;;;;;;5097545;28;20074;-64
2022/10/16 03:54:06;;;;;;;34.47;19.65;;;8.10;99.90;;;;;;5097559;28;20028;-64
2022/10/16 03:56:32;;;;;;;40.42;19.85;;;7.90;99.90;;;;;;5097272;28;20081;-64
2022/10/16 03:58:58;;;;;;;31.20;18.40;;;7.90;99.90;;;;;;5097526;28;20130;-64
2022/10/16 04:01:24;;;;;;;28.10;17.83;;;7.80;99.90;;;;;;5097362;28;20485;-64
2022/10/16 04:03:50;;;;;;;36.40;19.48;;;7.80;99.90;;;;;;5097324;28;20024;-64
2022/10/16 04:06:16;;;;;;;32.30;18.30;;;7.80;99.90;;;;;;5097227;28;20031;-64
2022/10/16 04:08:43;;;;;;;40.72;18.92;;;7.80;99.90;;;;;;5097249;28;20028;-65
2022/10/16 04:11:09;;;;;;;33.60;17.95;;;7.80;99.90;;;;;;5097059;28;20024;-65
2022/10/16 04:13:36;;;;;;;43.30;19.23;;;7.60;99.90;;;;;;5097150;28;20043;-64
2022/10/16 04:16:02;;;;;;;35.50;18.33;;;7.60;99.90;;;;;;5097126;28;20027;-64
2022/10/16 04:18:28;;;;;;;38.53;19.45;;;7.50;99.90;;;;;;5097014;28;20418;-64
2022/10/16 04:20:54;;;;;;;35.35;17.58;;;7.50;99.90;;;;;;5096730;28;20028;-64
2022/10/16 04:23:22;;;;;;;32.70;18.02;;;7.50;99.90;;;;;;5096689;28;20047;-64
2022/10/16 04:25:48;;;;;;;32.13;18.05;;;7.60;99.90;;;;;;5096886;28;20050;-65
2022/10/16 04:28:14;;;;;;;38.17;19.50;;;7.50;99.90;;;;;;5096816;28;20050;-64
2022/10/16 04:30:40;;;;;;;38.45;20.65;;;7.50;99.90;;;;;;5096819;28;20036;-64
2022/10/16 04:33:08;;;;;;;40.58;19.65;;;7.50;99.90;;;;;;5096664;28;20024;-64
2022/10/16 04:35:34;;;;;;;35.05;18.58;;;7.50;99.90;;;;;;5095637;28;20028;-64
2022/10/16 04:38:00;;;;;;;44.83;19.90;;;7.50;99.90;;;;;;5096466;28;20024;-65
2022/10/16 04:40:26;;;;;;;44.00;20.33;;;7.60;99.90;;;;;;5096438;28;20036;-64
2022/10/16 04:42:52;;;;;;;37.17;18.58;;;7.60;99.90;;;;;;5096678;28;20028;-64
2022/10/16 04:45:18;;;;;;;39.80;17.17;;;7.70;99.90;;;;;;5096329;28;20031;-64
2022/10/16 04:47:44;;;;;;;47.13;19.48;;;7.80;99.90;;;;;;5096325;28;20462;-64
2022/10/16 04:50:10;;;;;;;41.30;19.85;;;7.70;99.90;;;;;;5096438;28;20028;-64
2022/10/16 04:52:36;;;;;;;39.45;19.25;;;7.70;99.90;;;;;;5096295;28;20085;-64
2022/10/16 04:55:02;;;;;;;55.10;26.27;;;7.70;99.90;;;;;;5096177;28;20474;-64
2022/10/16 04:57:29;;;;;;;54.75;28.10;;;7.70;99.90;;;;;;5096212;28;20035;-64
2022/10/16 04:59:56;;;;;;;66.15;36.08;;;7.60;99.90;;;;;;5096180;28;20024;-64
2022/10/16 05:02:22;;;;;;;49.97;24.63;;;7.60;99.90;;;;;;5096103;28;20024;-64
2022/10/16 05:04:47;;;;;;;40.40;21.58;;;7.60;99.90;;;;;;5096267;28;20043;-64
2022/10/16 05:07:13;;;;;;;40.35;22.13;;;7.60;99.90;;;;;;5096047;28;20039;-64
2022/10/16 05:09:39;;;;;;;38.20;19.92;;;7.70;99.90;;;;;;5095989;28;20162;-64
2022/10/16 05:12:05;;;;;;;32.00;18.25;;;7.60;99.90;;;;;;5095944;28;20052;-64
2022/10/16 05:14:31;;;;;;;35.20;18.95;;;7.80;99.90;;;;;;5095903;28;20031;-64
2022/10/16 05:16:57;;;;;;;36.35;19.75;;;7.70;99.90;;;;;;5095857;28;20016;-64
2022/10/16 05:19:23;;;;;;;42.10;18.63;;;7.70;99.90;;;;;;5077699;28;20030;-64
2022/10/16 05:21:49;;;;;;;32.00;18.52;;;7.60;99.90;;;;;;5095575;28;20032;-64
2022/10/16 05:24:15;;;;;;;36.15;19.90;;;7.60;99.90;;;;;;5095619;28;20040;-64
2022/10/16 05:26:41;;;;;;;37.30;19.52;;;7.70;99.90;;;;;;5095942;28;20028;-64
2022/10/16 05:29:06;;;;;;;37.72;19.83;;;8.10;99.90;;;;;;5095839;28;20037;-64
2022/10/16 05:31:32;;;;;;;40.50;20.17;;;8.60;99.90;;;;;;5095471;28;20024;-64
2022/10/16 05:33:59;;;;;;;42.42;21.42;;;9.00;99.90;;;;;;5095437;28;20032;-64
2022/10/16 05:36:25;;;;;;;38.75;19.33;;;9.70;99.90;;;;;;5095399;28;20032;-64
2022/10/16 05:38:51;;;;;;;46.70;19.95;;;10.40;99.90;;;;;;5095502;28;20093;-64
2022/10/16 05:41:23;;;;;;;41.33;20.58;;;10.70;99.90;;;;;;5095463;28;20564;-64
2022/10/16 05:43:49;;;;;;;42.75;21.45;;;11.00;99.90;;;;;;5095478;28;20458;-64
2022/10/16 05:46:15;;;;;;;40.40;20.85;;;11.60;99.90;;;;;;5095374;28;20035;-64
2022/10/16 05:48:41;;;;;;;36.45;20.30;;;11.90;99.90;;;;;;5095109;28;20020;-65
2022/10/16 05:51:09;;;;;;;41.05;21.20;;;12.00;99.90;;;;;;5095377;28;20028;-64
2022/10/16 05:53:37;;;;;;;39.05;20.88;;;12.50;99.90;;;;;;5095099;28;20477;-64
2022/10/16 05:56:04;;;;;;;41.47;22.17;;;13.10;99.90;;;;;;5095247;28;20023;-65
2022/10/16 05:58:31;;;;;;;43.50;23.00;;;13.00;99.90;;;;;;5095058;28;20032;-65
2022/10/16 06:01:01;;;;;;;64.85;31.60;;;13.30;99.90;;;;;;5094960;28;20434;-64
2022/10/16 06:03:27;;;;;;;41.03;23.88;;;13.10;99.90;;;;;;5094970;28;20062;-65
2022/10/16 06:05:54;;;;;;;49.40;25.27;;;13.30;99.90;;;;;;5095023;28;20024;-65
2022/10/16 06:08:21;;;;;;;54.65;29.50;;;13.40;99.90;;;;;;5094954;28;20413;-65
2022/10/16 06:10:48;;;;;;;42.63;23.50;;;13.10;99.90;;;;;;5094977;28;20028;-65
2022/10/16 06:13:14;;;;;;;47.25;25.13;;;13.40;99.90;;;;;;5094909;28;20028;-65
2022/10/16 06:15:42;;;;;;;50.15;25.60;;;13.80;99.90;;;;;;5094916;28;20031;-65
2022/10/16 06:18:09;;;;;;;44.65;24.13;;;13.70;99.90;;;;;;5094730;28;20042;-65
2022/10/16 06:20:35;;;;;;;44.95;24.52;;;13.90;99.90;;;;;;5094679;28;20024;-65
2022/10/16 06:23:01;;;;;;;46.65;26.20;;;13.80;99.90;;;;;;5094501;28;20089;-65
2022/10/16 06:25:27;;;;;;;43.60;24.75;;;13.90;99.90;;;;;;5094781;28;20032;-65
2022/10/16 06:27:53;;;;;;;46.55;25.52;;;14.10;99.90;;;;;;5094714;28;20032;-65
2022/10/16 06:30:19;;;;;;;44.80;24.48;;;14.70;99.90;;;;;;5094659;28;20469;-65
2022/10/16 06:32:45;;;;;;;43.72;24.08;;;14.90;98.70;;;;;;5094349;28;20494;-65
2022/10/16 06:35:11;;;;;;;36.10;22.70;;;15.30;99.30;;;;;;5094587;28;20070;-65
2022/10/16 06:37:37;;;;;;;43.60;24.13;;;15.20;95.80;;;;;;5094617;28;20032;-65
2022/10/16 06:40:04;;;;;;;42.33;24.48;;;14.70;98.20;;;;;;5094446;28;20043;-66
2022/10/16 06:42:30;;;;;;;45.40;25.02;;;14.60;99.50;;;;;;5094552;28;20070;-66
2022/10/16 06:44:56;;;;;;;46.67;23.77;;;15.00;98.70;;;;;;5094420;28;20378;-65
2022/10/16 06:47:22;;;;;;;37.60;22.77;;;15.50;98.50;;;;;;5094382;28;20024;-65
2022/10/16 06:49:48;;;;;;;47.55;22.50;;;15.90;96.60;;;;;;5094399;28;20028;-66
2022/10/16 06:52:13;;;;;;;44.13;23.35;;;16.30;93.90;;;;;;5094457;28;20156;-65
2022/10/16 06:54:39;;;;;;;45.17;23.05;;;16.60;94.20;;;;;;5094609;28;20028;-66
2022/10/16 06:57:05;;;;;;;42.75;21.60;;;16.70;92.90;;;;;;5094309;28;20028;-66
2022/10/16 06:59:31;;;;;;;44.03;21.98;;;17.10;92.20;;;;;;5095887;28;20107;-66
2022/10/16 07:01:57;;;;;;;37.80;22.58;;;17.40;92.00;;;;;;5098398;28;20028;-66
2022/10/16 07:04:23;;;;;;;39.05;23.10;;;17.00;91.40;;;;;;5098391;28;20036;-66
2022/10/16 07:06:49;;;;;;;43.05;24.63;;;17.10;90.90;;;;;;5098440;28;20024;-66
2022/10/16 07:09:15;;;;;;;39.50;23.67;;;17.30;90.40;;;;;;5098285;28;20035;-66
2022/10/16 07:11:41;;;;;;;41.47;24.00;;;17.40;91.20;;;;;;5098310;28;20036;-66
2022/10/16 07:14:16;;;;;;;42.03;24.98;;;17.60;89.40;;;;;;5098320;28;20024;-66
2022/10/16 07:16:42;;;;;;;39.63;22.73;;;18.10;87.30;;;;;;5080110;28;20032;-66
2022/10/16 07:19:08;;;;;;;41.53;25.02;;;18.60;84.80;;;;;;5098075;28;20172;-66
2022/10/16 07:21:37;;;;;;;38.33;23.30;;;18.80;84.30;;;;;;5098064;28;20474;-66
2022/10/16 07:24:06;;;;;;;40.38;23.27;;;18.90;82.30;;;;;;5097787;28;20043;-66
2022/10/16 07:26:36;;;;;;;37.10;21.75;;;18.50;83.50;;;;;;5097960;28;20449;-66
2022/10/16 07:29:03;;;;;;;39.47;23.65;;;18.90;84.40;;;;;;5097873;28;20023;-66
2022/10/16 07:31:29;;;;;;;40.83;22.73;;;19.40;81.70;;;;;;5097901;28;20114;-66
2022/10/16 07:33:57;;;;;;;37.30;20.63;;;19.40;79.30;;;;;;5097890;28;20439;-66
2022/10/16 07:36:23;;;;;;;31.60;20.00;;;20.00;78.00;;;;;;5097786;28;20473;-66
2022/10/16 07:38:49;;;;;;;30.63;19.25;;;20.10;77.70;;;;;;5097702;28;20099;-66
2022/10/16 07:41:17;;;;;;;34.72;18.17;;;20.30;76.30;;;;;;5097866;28;20416;-67
2022/10/16 07:43:48;;;;;;;31.70;16.75;;;20.10;76.00;;;;;;5097636;28;20469;-66
2022/10/16 07:46:14;;;;;;;28.70;15.70;;;20.40;75.60;;;;;;5097610;28;20028;-66
2022/10/16 07:48:40;;;;;;;27.58;17.83;;;20.40;74.60;;;;;;5097559;28;20084;-67
2022/10/16 07:51:07;;;;;;;27.60;16.17;;;20.50;74.80;;;;;;5097490;28;20032;-66
2022/10/16 07:53:33;;;;;;;28.55;16.95;;;20.40;73.90;;;;;;5097457;28;20024;-66
2022/10/16 07:56:00;;;;;;;28.40;17.15;;;20.80;73.70;;;;;;5097338;28;20083;-66
2022/10/16 07:58:30;;;;;;;34.22;17.48;;;20.20;73.50;;;;;;5097392;28;20404;-66
2022/10/16 08:00:56;;;;;;;24.67;17.00;;;20.60;74.00;;;;;;5097335;28;20113;-66
2022/10/16 08:03:23;;;;;;;25.05;16.25;;;20.90;72.20;;;;;;5097466;28;20035;-67
2022/10/16 08:05:50;;;;;;;27.17;16.65;;;21.40;71.40;;;;;;5097304;28;20024;-67
2022/10/16 08:08:18;;;;;;;28.48;17.05;;;21.60;72.90;;;;;;5097072;28;20023;-67
2022/10/16 08:10:44;;;;;;;39.22;17.25;;;21.40;69.60;;;;;;5097068;28;20034;-67
2022/10/16 08:13:10;;;;;;;31.00;17.33;;;21.40;69.20;;;;;;5097189;28;20321;-67
2022/10/16 08:15:36;;;;;;;26.58;16.65;;;21.90;68.90;;;;;;5097105;28;20306;-67
2022/10/16 08:18:04;;;;;;;23.55;15.73;;;22.20;66.40;;;;;;5097098;28;20508;-67
2022/10/16 08:20:33;;;;;;;25.70;16.08;;;22.30;67.70;;;;;;5096944;28;20039;-66
2022/10/16 08:23:02;;;;;;;26.73;16.30;;;22.80;66.00;;;;;;5096662;28;20036;-67
2022/10/16 08:25:29;;;;;;;30.83;16.08;;;22.70;65.40;;;;;;5096750;28;20074;-67
2022/10/16 08:27:55;;;;;;;24.90;16.75;;;23.00;66.50;;;;;;5096937;28;20024;-67
2022/10/16 08:30:23;;;;;;;29.20;15.90;;;23.00;63.20;;;;;;5096852;28;20115;-67
2022/10/16 08:32:49;;;;;;;25.30;16.08;;;23.20;64.60;;;;;;5096697;28;20032;-67
2022/10/16 08:35:15;;;;;;;23.23;15.90;;;23.80;63.40;;;;;;5096680;28;20044;-67
2022/10/16 08:37:42;;;;;;;26.20;16.48;;;23.90;61.50;;;;;;5096662;28;20024;-67
2022/10/16 08:40:18;;;;;;;26.13;17.05;;;24.20;60.90;;;;;;5096499;28;20333;-67
2022/10/16 08:42:57;;;;;;;35.75;19.63;;;24.50;61.40;;;;;;5096426;28;20028;-67
2022/10/16 08:45:39;;;;;;;28.48;18.42;;;24.10;59.30;;;;;;5096338;28;20032;-67
2022/10/16 08:48:21;;;;;;;23.10;14.38;;;24.30;59.40;;;;;;5096482;28;20421;-67
2022/10/16 08:50:50;;;;;;;26.30;17.42;;;24.80;58.40;;;;;;5096390;28;20028;-67
2022/10/16 08:53:23;;;;;;;25.17;16.17;;;25.20;57.50;;;;;;5096465;28;20032;-67
2022/10/16 08:55:53;;;;;;;29.02;17.08;;;25.60;57.60;;;;;;5096253;28;20059;-67
2022/10/16 08:58:22;;;;;;;24.25;15.38;;;24.90;56.50;;;;;;5096304;28;20089;-67
2022/10/16 09:01:01;;;;;;;24.13;15.63;;;25.10;57.00;;;;;;5096045;28;20095;-67
2022/10/16 09:03:53;;;;;;;25.58;14.82;;;25.40;56.30;;;;;;5096180;28;20024;-67
2022/10/16 09:06:45;;;;;;;26.02;15.88;;;25.50;55.60;;;;;;5057616;28;20035;-67
2022/10/16 09:09:14;;;;;;;25.50;15.63;;;25.40;54.80;;;;;;5096067;28;20060;-67
2022/10/16 09:11:57;;;;;;;23.00;15.50;;;25.80;57.00;;;;;;5095939;28;20082;-67
2022/10/16 09:14:39;;;;;;;22.58;15.50;;;26.10;55.10;;;;;;5095986;28;20421;-67
2022/10/16 09:17:38;;;;;;;23.33;13.70;;;26.60;54.70;;;;;;5095854;28;20147;-67
2022/10/16 09:20:20;;;;;;;18.67;13.13;;;27.10;52.90;;;;;;5095764;28;20043;-67
2022/10/16 09:22:46;;;;;;;20.83;12.57;;;26.60;52.10;;;;;;5095114;28;20040;-67
2022/10/16 09:25:15;;;;;;;22.70;14.70;;;26.90;51.10;;;;;;5095697;28;20024;-67
2022/10/16 09:27:44;;;;;;;22.88;13.80;;;26.40;53.30;;;;;;5095612;28;20032;-67
2022/10/16 09:30:14;;;;;;;23.33;14.68;;;26.30;52.60;;;;;;5095685;28;20059;-68
2022/10/16 09:32:42;;;;;;;24.65;15.27;;;26.50;52.80;;;;;;5095617;28;20032;-67
2022/10/16 09:35:21;;;;;;;23.50;14.63;;;26.60;52.60;;;;;;5095544;28;20062;-67
2022/10/16 09:37:50;;;;;;;24.98;14.70;;;27.20;52.10;;;;;;5095479;28;20032;-67
2022/10/16 09:40:34;;;;;;;21.83;13.82;;;27.10;52.00;;;;;;5095197;28;20071;-67
2022/10/16 09:43:06;;;;;;;19.33;13.05;;;27.00;51.50;;;;;;5095462;28;20024;-67
2022/10/16 09:45:32;;;;;;;17.60;12.10;;;27.20;50.50;;;;;;5095164;28;20024;-68
2022/10/16 09:48:09;;;;;;;20.00;12.25;;;27.10;50.60;;;;;;5095224;28;20385;-67
2022/10/16 09:50:35;;;;;;;22.23;11.45;;;27.20;49.30;;;;;;5095312;28;20028;-67
2022/10/16 09:53:22;;;;;;;20.63;11.63;;;26.70;50.20;;;;;;5095299;28;20496;-67
2022/10/16 09:55:57;;;;;;;17.55;10.93;;;27.20;49.30;;;;;;5095174;28;20051;-67
2022/10/16 09:58:24;;;;;;;15.15;10.98;;;27.80;46.90;;;;;;5095230;28;20024;-67
2022/10/16 10:00:54;;;;;;;18.17;11.88;;;28.30;47.90;;;;;;5094933;28;20111;-67
2022/10/16 10:03:37;;;;;;;19.77;11.90;;;28.40;45.70;;;;;;5095045;28;20076;-67
2022/10/16 10:06:25;;;;;;;20.60;12.00;;;28.30;46.50;;;;;;5095009;28;20019;-67
2022/10/16 10:09:00;;;;;;;20.23;12.02;;;28.00;44.20;;;;;;5095079;28;20028;-67
2022/10/16 10:11:47;;;;;;;20.25;12.20;;;28.50;43.40;;;;;;5094936;28;20032;-67
2022/10/16 10:14:26;;;;;;;18.48;10.43;;;28.00;42.60;;;;;;5094938;28;20055;-67
2022/10/16 10:17:02;;;;;;;18.70;10.98;;;27.70;42.50;;;;;;5094789;28;20107;-67
2022/10/16 10:19:28;;;;;;;28.67;12.32;;;28.00;42.60;;;;;;5094970;28;20147;-67
2022/10/16 10:21:54;;;;;;;18.00;10.73;;;27.90;43.60;;;;;;5094625;28;20255;-67
2022/10/16 10:24:20;;;;;;;20.65;10.88;;;28.30;43.60;;;;;;5094470;28;20040;-67
2022/10/16 10:27:08;;;;;;;20.13;11.90;;;28.60;42.70;;;;;;5094706;28;20398;-67
2022/10/16 10:29:53;;;;;;;23.27;12.18;;;29.10;41.40;;;;;;5094643;28;20029;-68
2022/10/16 10:32:44;;;;;;;16.38;11.70;;;29.10;41.10;;;;;;5094461;28;20027;-67
2022/10/16 10:35:15;;;;;;;;;;;29.20;40.50;;;;;;5094370;28;20462;-68
2022/10/16 10:38:03;;;;;;;16.02;11.05;;;29.20;40.90;;;;;;5094402;28;20434;-67
2022/10/16 10:40:50;;;;;;;19.25;10.93;;;29.10;40.10;;;;;;5094497;28;20032;-67
2022/10/16 10:43:22;;;;;;;18.33;11.20;;;29.40;39.80;;;;;;5094501;28;20024;-68
2022/10/16 10:45:52;;;;;;;17.25;11.10;;;28.70;40.60;;;;;;5094422;28;20107;-67
2022/10/16 10:48:18;;;;;;;20.23;11.50;;;28.80;40.60;;;;;;5094493;28;20047;-68
2022/10/16 10:51:12;;;;;;;14.93;10.10;;;29.20;40.50;;;;;;5094423;28;20040;-67
2022/10/16 10:53:55;;;;;;;16.27;9.98;;;29.40;41.10;;;;;;5094424;28;20504;-67
2022/10/16 10:56:40;;;;;;;16.83;10.55;;;30.00;40.40;;;;;;5094281;28;20028;-67
2022/10/16 10:59:44;;;;;;;13.70;9.93;;;29.80;39.70;;;;;;5094305;28;20109;-68
2022/10/16 11:02:39;;;;;;;14.40;9.75;;;30.10;37.90;;;;;;5094456;28;20039;-67
2022/10/16 11:05:23;;;;;;;14.63;9.75;;;30.30;38.70;;;;;;5094370;28;20500;-67
2022/10/16 11:07:54;;;;;;;15.07;8.82;;;30.60;36.40;;;;;;5094098;28;20028;-67
2022/10/16 11:10:46;;;;;;;12.68;8.40;;;30.30;36.50;;;;;;5094328;28;20093;-67
2022/10/16 11:13:23;;;;;;;16.00;11.15;;;30.60;37.70;;;;;;5082747;28;20067;-68
2022/10/16 11:15:54;;;;;;;16.33;9.70;;;30.80;36.40;;;;;;5094229;28;20028;-67
2022/10/16 11:19:04;;;;;;;14.88;9.98;;;30.30;36.70;;;;;;5094283;28;20036;-67
2022/10/16 11:21:38;;;;;;;13.90;7.88;;;29.70;37.50;;;;;;5036194;28;20510;-67
2022/10/16 11:24:14;;;;;;;13.60;8.55;;;29.80;35.50;;;;;;5073776;28;20117;-67
2022/10/16 11:26:42;;;;;;;13.68;8.98;;;29.80;34.90;;;;;;5073830;28;20059;-67
2022/10/16 11:29:16;;;;;;;16.92;10.30;;;30.30;35.60;;;;;;5074215;28;20031;-67
2022/10/16 11:32:05;;;;;;;11.63;8.38;;;30.60;35.70;;;;;;5073869;28;20020;-67
2022/10/16 11:34:37;;;;;;;11.15;9.27;;;30.70;31.50;;;;;;5073772;28;20017;-67
2022/10/16 11:37:22;;;;;;;13.45;10.88;;;30.40;32.80;;;;;;5073736;28;20081;-67
2022/10/16 11:39:49;;;;;;;18.30;10.02;;;29.90;32.30;;;;;;5073791;28;20127;-67
2022/10/16 11:42:37;;;;;;;12.85;9.55;;;30.30;33.80;;;;;;5073698;28;20373;-67
2022/10/16 11:45:14;;;;;;;13.80;9.63;;;30.60;34.30;;;;;;5083490;28;20054;-67
2022/10/16 11:47:57;;;;;;;11.80;9.50;;;31.00;33.00;;;;;;5097574;28;20489;-67
2022/10/16 11:50:25;;;;;;;14.43;10.35;;;30.60;33.40;;;;;;5097741;28;20028;-67
2022/10/16 11:53:28;;;;;;;14.20;10.45;;;30.50;34.70;;;;;;5097464;28;20024;-67
2022/10/16 11:55:54;;;;;;;14.35;9.95;;;30.30;35.40;;;;;;5097486;28;20055;-67
2022/10/16 11:58:38;;;;;;;14.50;10.05;;;30.30;36.20;;;;;;5097528;28;20036;-67
2022/10/16 12:01:17;;;;;;;14.10;10.18;;;30.80;36.40;;;;;;5097323;28;20371;-67
2022/10/16 12:04:20;;;;;;;18.13;10.85;;;31.30;36.90;;;;;;5097366;28;20359;-67
2022/10/16 12:07:03;;;;;;;23.67;12.30;;;30.40;35.20;;;;;;5097339;28;20036;-67
2022/10/16 12:09:31;;;;;;;15.18;9.75;;;30.80;36.40;;;;;;5097262;28;20035;-67
2022/10/16 12:11:58;;;;;;;15.75;10.27;;;30.70;35.90;;;;;;5097130;28;20507;-67
2022/10/16 12:14:40;;;;;;;19.52;11.45;;;30.50;35.30;;;;;;5097090;28;20032;-67
2022/10/16 12:17:35;;;;;;;16.17;11.13;;;30.70;35.70;;;;;;5097000;28;20119;-67
2022/10/16 12:20:27;;;;;;;17.05;10.48;;;29.80;35.80;;;;;;5096913;28;20028;-67
2022/10/16 12:22:56;;;;;;;16.38;10.77;;;30.10;36.00;;;;;;5096792;28;20036;-66
2022/10/16 12:25:29;;;;;;;14.73;10.43;;;30.40;35.10;;;;;;5097032;28;20024;-67
2022/10/16 12:28:00;;;;;;;15.95;10.50;;;30.50;35.20;;;;;;5096745;28;20055;-67
2022/10/16 12:30:29;;;;;;;14.52;9.43;;;29.50;35.90;;;;;;5096933;28;20508;-67
2022/10/16 12:32:58;;;;;;;17.88;11.00;;;29.60;36.40;;;;;;5096748;28;20024;-67
2022/10/16 12:35:27;;;;;;;17.48;11.10;;;29.90;37.40;;;;;;5096850;28;20442;-66
2022/10/16 12:37:54;;;;;;;14.80;10.68;;;29.50;38.80;;;;;;5096597;28;20024;-67
2022/10/16 12:40:34;;;;;;;14.48;9.85;;;29.70;36.20;;;;;;5096622;28;20042;-66
2022/10/16 12:43:12;;;;;;;16.10;10.73;;;29.40;36.30;;;;;;5096679;28;20535;-67
2022/10/16 12:45:38;;;;;;;17.63;10.98;;;29.90;37.70;;;;;;5096410;28;20028;-66
2022/10/16 12:48:22;;;;;;;14.65;10.25;;;30.20;36.50;;;;;;5096514;28;20086;-67
2022/10/16 12:50:48;;;;;;;17.73;11.30;;;30.00;36.40;;;;;;5096468;28;20056;-67